sensor_id;sensor_type;location;lat;lon;timestamp;pressure;altitude;pressure_sealevel;temperature;humidity
75051;BME280;63628;47.656;11.310;2023-02-22T00:00:11;94670.69;;;6.63;69.27
75051;BME280;63628;47.656;11.310;2023-02-22T00:02:55;94690.31;;;1.16;69.62
75051;BME280;63628;47.656;11.310;2023-02-22T00:05:26;94673.19;;;5.01;73.60
75051;BME280;63628;47.656;11.310;2023-02-22T00:07:54;94677.22;;;4.97;71.76
75051;BME280;63628;47.656;11.310;2023-02-22T00:10:24;94666.56;;;6.29;69.88
75051;BME280;63628;47.656;11.310;2023-02-22T00:12:51;94670.53;;;6.45;68.81
75051;BME280;63628;47.656;11.310;2023-02-22T00:15:21;94672.72;;;6.10;68.09
75051;BME280;63628;47.656;11.310;2023-02-22T00:17:48;94663.03;;;6.48;69.25
75051;BME280;63628;47.656;11.310;2023-02-22T00:20:17;94677.22;;;3.19;64.09
75051;BME280;63628;47.656;11.310;2023-02-22T00:22:46;94678.09;;;1.16;71.83
75051;BME280;63628;47.656;11.310;2023-02-22T00:25:14;94670.75;;;3.71;63.67
75051;BME280;63628;47.656;11.310;2023-02-22T00:27:42;94665.53;;;5.59;71.34
75051;BME280;63628;47.656;11.310;2023-02-22T00:30:13;94652.06;;;6.20;70.20
75051;BME280;63628;47.656;11.310;2023-02-22T00:32:44;94658.97;;;6.08;68.89
75051;BME280;63628;47.656;11.310;2023-02-22T00:35:12;94659.09;;;5.02;59.45
75051;BME280;63628;47.656;11.310;2023-02-22T00:37:40;94670.59;;;1.95;68.05
75051;BME280;63628;47.656;11.310;2023-02-22T00:40:11;94677.69;;;1.57;78.04
75051;BME280;63628;47.656;11.310;2023-02-22T00:42:38;94667.78;;;5.29;71.40
75051;BME280;63628;47.656;11.310;2023-02-22T00:45:05;94664.91;;;5.63;64.59
75051;BME280;63628;47.656;11.310;2023-02-22T00:47:32;94655.38;;;5.95;69.41
75051;BME280;63628;47.656;11.310;2023-02-22T00:49:59;94670.31;;;2.26;70.25
75051;BME280;63628;47.656;11.310;2023-02-22T00:52:26;94659.09;;;5.48;71.45
75051;BME280;63628;47.656;11.310;2023-02-22T00:54:55;94665.97;;;5.36;59.70
75051;BME280;63628;47.656;11.310;2023-02-22T00:57:23;94667.59;;;5.24;72.00
75051;BME280;63628;47.656;11.310;2023-02-22T00:59:50;94662.66;;;5.93;70.48
75051;BME280;63628;47.656;11.310;2023-02-22T01:02:16;94666.28;;;5.79;70.19
75051;BME280;63628;47.656;11.310;2023-02-22T01:04:43;94658.81;;;6.02;69.19
75051;BME280;63628;47.656;11.310;2023-02-22T01:07:10;94667.31;;;4.72;58.85
75051;BME280;63628;47.656;11.310;2023-02-22T01:09:37;94652.16;;;5.93;69.89
75051;BME280;63628;47.656;11.310;2023-02-22T01:12:06;94657.59;;;5.98;69.02
75051;BME280;63628;47.656;11.310;2023-02-22T01:14:33;94653.56;;;5.76;69.88
75051;BME280;63628;47.656;11.310;2023-02-22T01:17:00;94658.81;;;6.02;69.26
75051;BME280;63628;47.656;11.310;2023-02-22T01:19:26;94651.31;;;6.06;69.18
75051;BME280;63628;47.656;11.310;2023-02-22T01:21:53;94645.25;;;6.06;69.52
75051;BME280;63628;47.656;11.310;2023-02-22T01:24:19;94646.38;;;4.99;69.68
75051;BME280;63628;47.656;11.310;2023-02-22T01:26:49;94637.22;;;5.94;69.96
75051;BME280;63628;47.656;11.310;2023-02-22T01:29:18;94633.75;;;6.00;69.51
75051;BME280;63628;47.656;11.310;2023-02-22T01:31:51;94630.09;;;6.08;68.93
75051;BME280;63628;47.656;11.310;2023-02-22T01:34:18;94625.09;;;5.86;69.19
75051;BME280;63628;47.656;11.310;2023-02-22T01:36:44;94639.00;;;2.90;63.78
75051;BME280;63628;47.656;11.310;2023-02-22T01:39:11;94633.69;;;4.08;74.05
75051;BME280;63628;47.656;11.310;2023-02-22T01:41:38;94625.16;;;5.53;69.99
75051;BME280;63628;47.656;11.310;2023-02-22T01:44:27;94622.66;;;5.85;70.22
75051;BME280;63628;47.656;11.310;2023-02-22T01:46:54;94619.03;;;5.92;69.09
75051;BME280;63628;47.656;11.310;2023-02-22T01:49:23;94619.44;;;5.96;68.71
75051;BME280;63628;47.656;11.310;2023-02-22T01:51:53;94617.00;;;5.94;69.37
75051;BME280;63628;47.656;11.310;2023-02-22T01:54:24;94611.56;;;5.89;69.84
75051;BME280;63628;47.656;11.310;2023-02-22T01:56:53;94610.47;;;4.86;58.80
75051;BME280;63628;47.656;11.310;2023-02-22T01:59:28;94612.22;;;5.65;69.86
75051;BME280;63628;47.656;11.310;2023-02-22T02:01:58;94610.13;;;5.87;69.37
75051;BME280;63628;47.656;11.310;2023-02-22T02:04:26;94600.06;;;5.90;68.98
75051;BME280;63628;47.656;11.310;2023-02-22T02:06:55;94596.63;;;5.90;69.08
75051;BME280;63628;47.656;11.310;2023-02-22T02:09:26;94596.38;;;5.98;68.95
75051;BME280;63628;47.656;11.310;2023-02-22T02:11:57;94587.31;;;5.94;68.43
75051;BME280;63628;47.656;11.310;2023-02-22T02:14:27;94602.75;;;3.08;72.72
75051;BME280;63628;47.656;11.310;2023-02-22T02:16:57;94587.03;;;5.37;70.14
75051;BME280;63628;47.656;11.310;2023-02-22T02:19:29;94584.31;;;5.70;69.65
75051;BME280;63628;47.656;11.310;2023-02-22T02:22:15;94587.47;;;4.62;57.53
75051;BME280;63628;47.656;11.310;2023-02-22T02:25:24;94585.75;;;4.01;73.76
75051;BME280;63628;47.656;11.310;2023-02-22T02:31:15;94591.72;;;4.69;72.50
75051;BME280;63628;47.656;11.310;2023-02-22T02:33:51;94616.13;;;0.74;68.70
75051;BME280;63628;47.656;11.310;2023-02-22T02:36:28;94620.78;;;1.31;78.71
75051;BME280;63628;47.656;11.310;2023-02-22T02:39:00;94608.00;;;4.52;72.39
75051;BME280;63628;47.656;11.310;2023-02-22T02:41:33;94607.38;;;4.30;72.40
75051;BME280;63628;47.656;11.310;2023-02-22T02:44:03;94612.09;;;5.27;69.84
75051;BME280;63628;47.656;11.310;2023-02-22T02:46:33;94611.25;;;5.39;69.29
75051;BME280;63628;47.656;11.310;2023-02-22T02:49:06;94606.81;;;5.40;69.54
75051;BME280;63628;47.656;11.310;2023-02-22T02:51:37;94613.69;;;5.41;69.98
75051;BME280;63628;47.656;11.310;2023-02-22T02:54:07;94606.84;;;5.33;69.48
75051;BME280;63628;47.656;11.310;2023-02-22T02:56:34;94609.25;;;5.41;69.90
75051;BME280;63628;47.656;11.310;2023-02-22T02:59:01;94613.88;;;5.46;69.91
75051;BME280;63628;47.656;11.310;2023-02-22T03:01:45;94616.31;;;5.41;69.76
75051;BME280;63628;47.656;11.310;2023-02-22T03:04:34;94608.63;;;5.39;69.73
75051;BME280;63628;47.656;11.310;2023-02-22T03:07:24;94604.00;;;5.41;68.83
75051;BME280;63628;47.656;11.310;2023-02-22T03:10:02;94607.63;;;5.40;69.65
75051;BME280;63628;47.656;11.310;2023-02-22T03:12:42;94610.84;;;5.43;69.36
75051;BME280;63628;47.656;11.310;2023-02-22T03:15:18;94610.03;;;5.42;69.63
75051;BME280;63628;47.656;11.310;2023-02-22T03:17:53;94605.22;;;5.39;69.79
75051;BME280;63628;47.656;11.310;2023-02-22T03:20:28;94611.44;;;5.45;69.65
75051;BME280;63628;47.656;11.310;2023-02-22T03:23:02;94604.59;;;5.44;68.86
75051;BME280;63628;47.656;11.310;2023-02-22T03:25:33;94604.00;;;5.41;69.04
75051;BME280;63628;47.656;11.310;2023-02-22T03:28:06;94625.28;;;1.52;72.75
75051;BME280;63628;47.656;11.310;2023-02-22T03:30:40;94615.16;;;2.72;60.50
75051;BME280;63628;47.656;11.310;2023-02-22T03:33:10;94614.25;;;3.42;74.09
75051;BME280;63628;47.656;11.310;2023-02-22T03:35:44;94616.31;;;4.95;70.89
75051;BME280;63628;47.656;11.310;2023-02-22T03:38:15;94608.66;;;5.13;70.04
75051;BME280;63628;47.656;11.310;2023-02-22T03:40:47;94622.56;;;2.68;61.70
75051;BME280;63628;47.656;11.310;2023-02-22T03:43:20;94608.66;;;4.73;71.50
75051;BME280;63628;47.656;11.310;2023-02-22T03:45:50;94620.47;;;3.82;60.40
75051;BME280;63628;47.656;11.310;2023-02-22T03:48:21;94612.09;;;4.87;70.43
75051;BME280;63628;47.656;11.310;2023-02-22T03:50:50;94603.81;;;5.10;70.40
75051;BME280;63628;47.656;11.310;2023-02-22T03:53:18;94599.56;;;5.09;70.45
75051;BME280;63628;47.656;11.310;2023-02-22T03:55:46;94611.66;;;3.48;61.62
75051;BME280;63628;47.656;11.310;2023-02-22T03:58:19;94601.53;;;4.28;71.59
75051;BME280;63628;47.656;11.310;2023-02-22T04:00:47;94593.13;;;4.98;70.43
75051;BME280;63628;47.656;11.310;2023-02-22T04:03:18;94598.75;;;5.08;68.32
75051;BME280;63628;47.656;11.310;2023-02-22T04:05:45;94595.34;;;4.82;69.52
75051;BME280;63628;47.656;11.310;2023-02-22T04:08:13;94599.78;;;4.88;68.13
75051;BME280;63628;47.656;11.310;2023-02-22T04:10:40;94596.56;;;4.59;70.82
75051;BME280;63628;47.656;11.310;2023-02-22T04:13:07;94594.53;;;5.01;69.34
75051;BME280;63628;47.656;11.310;2023-02-22T04:15:34;94587.47;;;5.08;69.39
75051;BME280;63628;47.656;11.310;2023-02-22T04:18:00;94578.00;;;5.07;69.20
75051;BME280;63628;47.656;11.310;2023-02-22T04:20:27;94591.88;;;2.55;61.65
75051;BME280;63628;47.656;11.310;2023-02-22T04:22:54;94596.16;;;0.29;67.65
75051;BME280;63628;47.656;11.310;2023-02-22T04:25:22;94592.75;;;0.06;72.30
75051;BME280;63628;47.656;11.310;2023-02-22T04:27:50;94584.44;;;3.84;72.92
75051;BME280;63628;47.656;11.310;2023-02-22T04:30:18;94587.34;;;1.05;72.87
75051;BME280;63628;47.656;11.310;2023-02-22T04:32:45;94588.41;;;0.81;65.22
75051;BME280;63628;47.656;11.310;2023-02-22T04:35:11;94588.50;;;0.50;75.57
75051;BME280;63628;47.656;11.310;2023-02-22T04:37:38;94574.09;;;3.63;64.64
75051;BME280;63628;47.656;11.310;2023-02-22T04:40:06;94576.72;;;3.63;72.85
75051;BME280;63628;47.656;11.310;2023-02-22T04:42:35;94568.50;;;4.53;70.49
75051;BME280;63628;47.656;11.310;2023-02-22T04:45:02;94573.94;;;4.45;69.54
75051;BME280;63628;47.656;11.310;2023-02-22T04:47:29;94557.25;;;4.59;66.13
75051;BME280;63628;47.656;11.310;2023-02-22T04:49:56;94563.50;;;4.58;69.64
75051;BME280;63628;47.656;11.310;2023-02-22T04:52:23;94561.88;;;4.70;70.08
75051;BME280;63628;47.656;11.310;2023-02-22T04:54:49;94555.03;;;4.69;70.60
75051;BME280;63628;47.656;11.310;2023-02-22T04:57:16;94557.81;;;4.55;66.89
75051;BME280;63628;47.656;11.310;2023-02-22T04:59:44;94558.88;;;4.67;65.50
75051;BME280;63628;47.656;11.310;2023-02-22T05:02:11;94560.25;;;2.01;74.68
75051;BME280;63628;47.656;11.310;2023-02-22T05:04:38;94549.50;;;4.05;71.29
75051;BME280;63628;47.656;11.310;2023-02-22T05:07:04;94552.78;;;4.53;70.24
75051;BME280;63628;47.656;11.310;2023-02-22T05:09:31;94541.94;;;4.63;69.59
75051;BME280;63628;47.656;11.310;2023-02-22T05:11:58;94542.53;;;4.65;70.33
75051;BME280;63628;47.656;11.310;2023-02-22T05:14:24;94542.53;;;4.65;69.86
75051;BME280;63628;47.656;11.310;2023-02-22T05:16:54;94538.50;;;4.62;70.07
75051;BME280;63628;47.656;11.310;2023-02-22T05:19:21;94530.78;;;4.14;61.17
75051;BME280;63628;47.656;11.310;2023-02-22T05:21:48;94530.44;;;4.57;69.46
75051;BME280;63628;47.656;11.310;2023-02-22T05:24:15;94545.81;;;1.84;76.96
75051;BME280;63628;47.656;11.310;2023-02-22T05:26:42;94526.97;;;4.10;72.38
75051;BME280;63628;47.656;11.310;2023-02-22T05:29:09;94529.41;;;4.38;70.16
75051;BME280;63628;47.656;11.310;2023-02-22T05:31:35;94529.88;;;3.74;60.52
75051;BME280;63628;47.656;11.310;2023-02-22T05:34:03;94534.53;;;3.31;73.45
75051;BME280;63628;47.656;11.310;2023-02-22T05:36:30;94549.78;;;-1.22;69.62
75051;BME280;63628;47.656;11.310;2023-02-22T05:38:56;94536.28;;;3.24;73.89
75051;BME280;63628;47.656;11.310;2023-02-22T05:41:23;94537.19;;;1.18;64.92
75051;BME280;63628;47.656;11.310;2023-02-22T05:43:49;94537.44;;;3.49;72.94
75051;BME280;63628;47.656;11.310;2023-02-22T05:46:16;94532.78;;;4.06;69.13
75051;BME280;63628;47.656;11.310;2023-02-22T05:48:43;94535.63;;;4.11;69.91
75051;BME280;63628;47.656;11.310;2023-02-22T05:51:10;94551.50;;;1.37;75.82
75051;BME280;63628;47.656;11.310;2023-02-22T05:53:37;94542.41;;;3.38;72.14
75051;BME280;63628;47.656;11.310;2023-02-22T05:56:04;94545.09;;;4.12;71.33
75051;BME280;63628;47.656;11.310;2023-02-22T05:58:31;94549.72;;;4.23;70.31
75051;BME280;63628;47.656;11.310;2023-02-22T06:00:57;94549.94;;;4.28;70.37
75051;BME280;63628;47.656;11.310;2023-02-22T06:03:25;94547.31;;;4.28;71.28
75051;BME280;63628;47.656;11.310;2023-02-22T06:05:52;94550.53;;;4.30;70.26
75051;BME280;63628;47.656;11.310;2023-02-22T06:08:20;94555.59;;;4.32;70.42
75051;BME280;63628;47.656;11.310;2023-02-22T06:10:46;94549.94;;;4.35;69.34
75051;BME280;63628;47.656;11.310;2023-02-22T06:13:13;94557.59;;;4.36;70.21
75051;BME280;63628;47.656;11.310;2023-02-22T06:15:39;94557.19;;;4.33;69.97
75051;BME280;63628;47.656;11.310;2023-02-22T06:18:06;94552.94;;;4.19;69.87
75051;BME280;63628;47.656;11.310;2023-02-22T06:20:32;94557.81;;;4.28;70.05
75051;BME280;63628;47.656;11.310;2023-02-22T06:23:00;94561.44;;;4.27;70.58
75051;BME280;63628;47.656;11.310;2023-02-22T06:25:29;94561.84;;;4.31;70.30
75051;BME280;63628;47.656;11.310;2023-02-22T06:27:59;94561.22;;;4.22;69.21
75051;BME280;63628;47.656;11.310;2023-02-22T06:30:26;94562.44;;;4.26;70.16
75051;BME280;63628;47.656;11.310;2023-02-22T06:32:53;94561.44;;;4.34;69.44
75051;BME280;63628;47.656;11.310;2023-02-22T06:35:21;94562.44;;;4.33;69.81
75051;BME280;63628;47.656;11.310;2023-02-22T06:37:47;94565.06;;;4.33;69.91
75051;BME280;63628;47.656;11.310;2023-02-22T06:40:15;94564.66;;;4.29;70.37
75051;BME280;63628;47.656;11.310;2023-02-22T06:42:43;94564.81;;;4.14;69.77
75051;BME280;63628;47.656;11.310;2023-02-22T06:45:10;94565.25;;;4.25;69.45
75051;BME280;63628;47.656;11.310;2023-02-22T06:47:37;94565.84;;;4.27;70.56
75051;BME280;63628;47.656;11.310;2023-02-22T06:50:07;94569.66;;;4.11;70.21
75051;BME280;63628;47.656;11.310;2023-02-22T06:52:34;94561.03;;;4.24;70.49
75051;BME280;63628;47.656;11.310;2023-02-22T06:55:00;94560.63;;;4.27;69.44
75051;BME280;63628;47.656;11.310;2023-02-22T06:57:27;94563.63;;;4.17;70.07
75051;BME280;63628;47.656;11.310;2023-02-22T06:59:55;94582.22;;;3.33;71.39
75051;BME280;63628;47.656;11.310;2023-02-22T07:02:22;94580.56;;;1.70;68.87
75051;BME280;63628;47.656;11.310;2023-02-22T07:04:49;94581.06;;;1.80;67.84
75051;BME280;63628;47.656;11.310;2023-02-22T07:07:15;94583.47;;;2.81;70.42
75051;BME280;63628;47.656;11.310;2023-02-22T07:09:44;94581.88;;;3.15;69.65
75051;BME280;63628;47.656;11.310;2023-02-22T07:12:11;94574.88;;;3.57;70.45
75051;BME280;63628;47.656;11.310;2023-02-22T07:14:38;94580.41;;;2.29;67.31
75051;BME280;63628;47.656;11.310;2023-02-22T07:17:06;94580.25;;;2.79;73.22
75051;BME280;63628;47.656;11.310;2023-02-22T07:19:33;94581.47;;;1.62;72.18
75051;BME280;63628;47.656;11.310;2023-02-22T07:21:59;94580.47;;;3.12;72.51
75051;BME280;63628;47.656;11.310;2023-02-22T07:24:26;94582.13;;;2.64;70.55
75051;BME280;63628;47.656;11.310;2023-02-22T07:26:55;94585.28;;;2.60;73.76
75051;BME280;63628;47.656;11.310;2023-02-22T07:29:22;94574.16;;;3.00;71.37
75051;BME280;63628;47.656;11.310;2023-02-22T07:31:49;94583.72;;;3.56;70.79
75051;BME280;63628;47.656;11.310;2023-02-22T07:34:17;94582.97;;;3.68;70.08
75051;BME280;63628;47.656;11.310;2023-02-22T07:36:44;94578.47;;;3.90;69.75
75051;BME280;63628;47.656;11.310;2023-02-22T07:39:10;94578.28;;;3.98;69.40
75051;BME280;63628;47.656;11.310;2023-02-22T07:41:38;94579.47;;;3.96;70.25
75051;BME280;63628;47.656;11.310;2023-02-22T07:44:05;94564.38;;;3.98;70.14
75051;BME280;63628;47.656;11.310;2023-02-22T07:46:31;94571.22;;;3.99;70.73
75051;BME280;63628;47.656;11.310;2023-02-22T07:48:59;94559.16;;;4.04;70.40
75051;BME280;63628;47.656;11.310;2023-02-22T07:51:27;94564.63;;;4.09;67.48
75051;BME280;63628;47.656;11.310;2023-02-22T07:53:56;94556.59;;;5.17;66.76
75051;BME280;63628;47.656;11.310;2023-02-22T07:56:23;94555.66;;;5.69;64.17
75051;BME280;63628;47.656;11.310;2023-02-22T07:58:49;94558.00;;;5.19;66.92
75051;BME280;63628;47.656;11.310;2023-02-22T08:01:16;94549.97;;;5.79;65.06
75051;BME280;63628;47.656;11.310;2023-02-22T08:03:43;94558.38;;;6.70;62.37
75051;BME280;63628;47.656;11.310;2023-02-22T08:06:12;94557.06;;;6.23;64.32
75051;BME280;63628;47.656;11.310;2023-02-22T08:08:40;94545.91;;;7.52;62.39
75051;BME280;63628;47.656;11.310;2023-02-22T08:11:08;94552.69;;;7.78;58.43
75051;BME280;63628;47.656;11.310;2023-02-22T08:13:34;94557.31;;;6.15;64.70
75051;BME280;63628;47.656;11.310;2023-02-22T08:16:02;94553.97;;;6.32;64.33
75051;BME280;63628;47.656;11.310;2023-02-22T08:18:29;94546.94;;;7.08;61.99
75051;BME280;63628;47.656;11.310;2023-02-22T08:20:56;94547.00;;;7.62;60.84
75051;BME280;63628;47.656;11.310;2023-02-22T08:23:24;94551.31;;;7.39;59.35
75051;BME280;63628;47.656;11.310;2023-02-22T08:25:54;94547.47;;;6.03;62.74
75051;BME280;63628;47.656;11.310;2023-02-22T08:28:22;94543.56;;;7.62;61.78
75051;BME280;63628;47.656;11.310;2023-02-22T08:30:50;94537.28;;;8.11;60.44
75051;BME280;63628;47.656;11.310;2023-02-22T08:33:17;94540.59;;;8.67;58.29
75051;BME280;63628;47.656;11.310;2023-02-22T08:35:45;94523.44;;;8.87;56.75
75051;BME280;63628;47.656;11.310;2023-02-22T08:38:17;94530.41;;;10.15;57.96
75051;BME280;63628;47.656;11.310;2023-02-22T08:40:44;94522.50;;;10.44;51.63
75051;BME280;63628;47.656;11.310;2023-02-22T08:43:12;94532.41;;;10.82;53.12
75051;BME280;63628;47.656;11.310;2023-02-22T08:45:39;94529.69;;;9.92;54.88
75051;BME280;63628;47.656;11.310;2023-02-22T08:48:06;94528.44;;;9.71;52.71
75051;BME280;63628;47.656;11.310;2023-02-22T08:50:33;94541.22;;;9.50;56.25
75051;BME280;63628;47.656;11.310;2023-02-22T08:53:02;94542.25;;;8.19;60.20
75051;BME280;63628;47.656;11.310;2023-02-22T08:55:30;94538.81;;;9.49;57.66
75051;BME280;63628;47.656;11.310;2023-02-22T08:57:57;94541.22;;;7.11;62.08
75051;BME280;63628;47.656;11.310;2023-02-22T09:00:26;94538.38;;;8.22;59.58
75051;BME280;63628;47.656;11.310;2023-02-22T09:02:55;94541.13;;;7.79;59.25
75051;BME280;63628;47.656;11.310;2023-02-22T09:05:21;94540.63;;;6.65;63.71
75051;BME280;63628;47.656;11.310;2023-02-22T09:07:48;94531.41;;;7.98;62.42
75051;BME280;63628;47.656;11.310;2023-02-22T09:10:18;94534.41;;;7.83;60.15
75051;BME280;63628;47.656;11.310;2023-02-22T09:12:45;94534.59;;;8.00;63.35
75051;BME280;63628;47.656;11.310;2023-02-22T09:15:12;94531.72;;;9.14;60.59
75051;BME280;63628;47.656;11.310;2023-02-22T09:17:39;94519.97;;;8.87;59.00
75051;BME280;63628;47.656;11.310;2023-02-22T09:20:07;94522.28;;;10.34;56.50
75051;BME280;63628;47.656;11.310;2023-02-22T09:22:34;94530.47;;;10.77;57.20
75051;BME280;63628;47.656;11.310;2023-02-22T09:25:00;94520.78;;;10.83;50.99
75051;BME280;63628;47.656;11.310;2023-02-22T09:27:41;94515.69;;;12.09;52.41
75051;BME280;63628;47.656;11.310;2023-02-22T09:30:15;94508.97;;;12.82;45.49
75051;BME280;63628;47.656;11.310;2023-02-22T09:32:44;94511.94;;;10.61;52.17
75051;BME280;63628;47.656;11.310;2023-02-22T09:35:11;94517.31;;;10.49;51.50
75051;BME280;63628;47.656;11.310;2023-02-22T09:37:38;94515.81;;;9.61;52.20
75051;BME280;63628;47.656;11.310;2023-02-22T09:40:06;94506.50;;;11.18;48.96
75051;BME280;63628;47.656;11.310;2023-02-22T09:42:41;94505.81;;;11.66;49.51
75051;BME280;63628;47.656;11.310;2023-02-22T09:45:17;94505.78;;;12.80;48.45
75051;BME280;63628;47.656;11.310;2023-02-22T09:47:49;94508.47;;;11.83;48.12
75051;BME280;63628;47.656;11.310;2023-02-22T09:50:22;94509.94;;;11.18;50.92
75051;BME280;63628;47.656;11.310;2023-02-22T09:52:53;94511.78;;;11.18;51.31
75051;BME280;63628;47.656;11.310;2023-02-22T09:55:28;94510.00;;;11.40;47.96
75051;BME280;63628;47.656;11.310;2023-02-22T09:58:00;94506.63;;;10.44;51.24
75051;BME280;63628;47.656;11.310;2023-02-22T10:00:30;94503.44;;;10.92;51.72
75051;BME280;63628;47.656;11.310;2023-02-22T10:03:11;94490.53;;;13.35;46.70
75051;BME280;63628;47.656;11.310;2023-02-22T10:05:46;94490.25;;;14.46;43.59
75051;BME280;63628;47.656;11.310;2023-02-22T10:08:16;94489.72;;;13.29;43.57
75051;BME280;63628;47.656;11.310;2023-02-22T10:10:46;94489.41;;;13.25;44.65
75051;BME280;63628;47.656;11.310;2023-02-22T10:13:24;94486.31;;;14.99;42.58
75051;BME280;63628;47.656;11.310;2023-02-22T10:15:58;94475.56;;;16.35;39.46
75051;BME280;63628;47.656;11.310;2023-02-22T10:18:49;94483.41;;;13.98;40.66
75051;BME280;63628;47.656;11.310;2023-02-22T10:21:34;94482.00;;;13.75;42.08
75051;BME280;63628;47.656;11.310;2023-02-22T10:24:13;94484.44;;;11.51;41.03
75051;BME280;63628;47.656;11.310;2023-02-22T10:26:42;94480.41;;;12.99;44.62
75051;BME280;63628;47.656;11.310;2023-02-22T10:29:15;94483.91;;;12.14;41.32
75051;BME280;63628;47.656;11.310;2023-02-22T10:31:45;94471.78;;;12.82;43.90
75051;BME280;63628;47.656;11.310;2023-02-22T10:34:20;94472.88;;;15.55;40.78
75051;BME280;63628;47.656;11.310;2023-02-22T10:36:54;94467.09;;;15.28;37.97
75051;BME280;63628;47.656;11.310;2023-02-22T10:39:26;94464.56;;;13.52;40.86
75051;BME280;63628;47.656;11.310;2023-02-22T10:41:55;94470.97;;;12.23;44.56
75051;BME280;63628;47.656;11.310;2023-02-22T10:44:23;94467.72;;;11.50;43.84
75051;BME280;63628;47.656;11.310;2023-02-22T10:46:51;94455.06;;;14.34;41.22
75051;BME280;63628;47.656;11.310;2023-02-22T10:49:21;94463.91;;;12.06;41.72
75051;BME280;63628;47.656;11.310;2023-02-22T10:51:56;94460.91;;;11.76;45.30
75051;BME280;63628;47.656;11.310;2023-02-22T10:54:28;94456.75;;;12.07;44.50
75051;BME280;63628;47.656;11.310;2023-02-22T10:56:56;94462.84;;;11.20;44.45
75051;BME280;63628;47.656;11.310;2023-02-22T10:59:29;94452.78;;;12.63;41.52
75051;BME280;63628;47.656;11.310;2023-02-22T11:01:58;94449.94;;;12.38;40.97
75051;BME280;63628;47.656;11.310;2023-02-22T11:04:27;94436.88;;;16.22;38.21
75051;BME280;63628;47.656;11.310;2023-02-22T11:07:08;94435.06;;;15.43;35.87
75051;BME280;63628;47.656;11.310;2023-02-22T11:09:46;94436.91;;;14.15;37.15
75051;BME280;63628;47.656;11.310;2023-02-22T11:12:17;94440.09;;;14.17;38.51
75051;BME280;63628;47.656;11.310;2023-02-22T11:14:44;94428.59;;;16.24;36.39
75051;BME280;63628;47.656;11.310;2023-02-22T11:17:17;94429.94;;;16.26;36.90
75051;BME280;63628;47.656;11.310;2023-02-22T11:19:47;94427.50;;;13.87;35.97
75051;BME280;63628;47.656;11.310;2023-02-22T11:22:20;94425.53;;;14.55;34.93
75051;BME280;63628;47.656;11.310;2023-02-22T11:24:50;94417.78;;;16.00;34.05
75051;BME280;63628;47.656;11.310;2023-02-22T11:27:26;94409.16;;;17.97;33.02
75051;BME280;63628;47.656;11.310;2023-02-22T11:29:55;94412.28;;;18.79;32.51
75051;BME280;63628;47.656;11.310;2023-02-22T11:32:24;94404.88;;;17.96;33.01
75051;BME280;63628;47.656;11.310;2023-02-22T11:35:17;94403.75;;;18.02;33.17
75051;BME280;63628;47.656;11.310;2023-02-22T11:37:46;94403.81;;;16.57;36.11
75051;BME280;63628;47.656;11.310;2023-02-22T11:40:15;94399.94;;;16.78;34.13
75051;BME280;63628;47.656;11.310;2023-02-22T11:42:45;94410.63;;;13.56;41.84
75051;BME280;63628;47.656;11.310;2023-02-22T11:45:14;94402.47;;;13.78;38.85
75051;BME280;63628;47.656;11.310;2023-02-22T11:47:47;94397.97;;;13.21;39.15
75051;BME280;63628;47.656;11.310;2023-02-22T11:50:22;94398.94;;;13.62;38.36
75051;BME280;63628;47.656;11.310;2023-02-22T11:52:59;94391.84;;;13.73;38.80
75051;BME280;63628;47.656;11.310;2023-02-22T11:55:31;94399.47;;;13.59;40.98
75051;BME280;63628;47.656;11.310;2023-02-22T11:58:22;94390.91;;;14.66;35.22
75051;BME280;63628;47.656;11.310;2023-02-22T12:00:59;94382.09;;;15.91;34.62
75051;BME280;63628;47.656;11.310;2023-02-22T12:03:57;94397.19;;;13.88;36.26
75051;BME280;63628;47.656;11.310;2023-02-22T12:06:44;94387.47;;;14.45;34.88
75051;BME280;63628;47.656;11.310;2023-02-22T12:09:16;94381.19;;;13.16;36.93
75051;BME280;63628;47.656;11.310;2023-02-22T12:11:56;94385.91;;;13.04;34.96
75051;BME280;63628;47.656;11.310;2023-02-22T12:14:33;94387.00;;;12.70;35.24
75051;BME280;63628;47.656;11.310;2023-02-22T12:17:16;94371.47;;;12.94;36.21
75051;BME280;63628;47.656;11.310;2023-02-22T12:19:48;94371.94;;;13.18;36.41
75051;BME280;63628;47.656;11.310;2023-02-22T12:22:20;94373.16;;;12.63;35.24
75051;BME280;63628;47.656;11.310;2023-02-22T12:24:52;94374.09;;;12.89;36.24
75051;BME280;63628;47.656;11.310;2023-02-22T12:27:36;94371.66;;;12.78;44.92
75051;BME280;63628;47.656;11.310;2023-02-22T12:30:11;94367.69;;;12.80;34.47
75051;BME280;63628;47.656;11.310;2023-02-22T12:32:42;94368.38;;;12.65;40.70
75051;BME280;63628;47.656;11.310;2023-02-22T12:35:17;94374.47;;;12.61;36.93
75051;BME280;63628;47.656;11.310;2023-02-22T12:37:52;94368.03;;;12.20;41.41
75051;BME280;63628;47.656;11.310;2023-02-22T12:40:26;94367.56;;;10.87;44.31
75051;BME280;63628;47.656;11.310;2023-02-22T12:42:59;94364.91;;;12.28;34.31
75051;BME280;63628;47.656;11.310;2023-02-22T12:45:34;94354.28;;;12.28;37.41
75051;BME280;63628;47.656;11.310;2023-02-22T12:48:18;94353.91;;;12.46;39.03
75051;BME280;63628;47.656;11.310;2023-02-22T12:50:51;94348.38;;;12.95;36.32
75051;BME280;63628;47.656;11.310;2023-02-22T12:53:24;94347.56;;;12.94;37.94
75051;BME280;63628;47.656;11.310;2023-02-22T12:55:57;94345.72;;;12.95;44.28
75051;BME280;63628;47.656;11.310;2023-02-22T12:58:29;94351.47;;;12.07;40.58
75051;BME280;63628;47.656;11.310;2023-02-22T13:01:01;94337.69;;;12.85;37.54
75051;BME280;63628;47.656;11.310;2023-02-22T13:03:35;94345.75;;;12.53;37.83
75051;BME280;63628;47.656;11.310;2023-02-22T13:06:16;94342.25;;;12.15;46.71
75051;BME280;63628;47.656;11.310;2023-02-22T13:08:53;94334.88;;;12.22;40.60
75051;BME280;63628;47.656;11.310;2023-02-22T13:11:27;94334.41;;;12.67;38.64
75051;BME280;63628;47.656;11.310;2023-02-22T13:14:10;94337.69;;;11.79;40.87
75051;BME280;63628;47.656;11.310;2023-02-22T13:16:46;94335.59;;;11.81;44.98